Cp 276 — IGNR — position and weather

sailwx.info

Track history (hours):
 
Tides and Currents Weather Stations Pressure Air Temp Water Temp Dewpoint Dewpoint Depression Visibility Wind Speed Wind Dir Waves Ship Positions

Cp 276

Last reported at 2016-Jul-24 10:27 UTC. Time now 2016-Jul-25 14:02 UTC.
Position N 38°02' E 015°29'.

Length 25 m; draft 1.9 m.

Type: SAR. MMSI: 247020900.

Date/timePositionNaut miles runAvg speedWind from/ knotsBaromVisibWave heightAir tempDewpointWater temp
2016-Jul-24 10:27N 38°02' E 015°29'1314.6
2016-Jul-24 09:34N 38°14' E 015°36'9 9.1
2016-Jul-24 08:33N 38°21' E 015°29'1514.6
2016-Jul-24 07:33N 38°24' E 015°11'11 0.9
2016-Jul-23 18:12N 38°28' E 014°57'0 0.0
2016-Jul-23 17:21N 38°28' E 014°57'0 0.0
2016-Jul-23 02:11N 38°28' E 014°57'0 0.0
2016-Jul-23 01:30N 38°28' E 014°57'0 0.0
2016-Jul-22 22:25N 38°28' E 014°57'0 0.0
2016-Jul-22 20:24N 38°28' E 014°57'0 0.0
2016-Jul-22 18:20N 38°28' E 014°57'0 0.0
2016-Jul-22 17:33N 38°28' E 014°57'3 0.7
2016-Jul-22 13:11N 38°31' E 014°56'0 0.0
2016-Jul-22 12:33N 38°31' E 014°56'0 0.0
2016-Jul-22 11:33N 38°31' E 014°56'0 0.2
2016-Jul-22 10:33N 38°31' E 014°56'2 1.5
2016-Jul-22 09:14N 38°31' E 014°59'3 3.8
2016-Jul-22 08:33N 38°28' E 014°57'  
Track history (hours):
 
Tides and Currents Weather Stations Pressure Air Temp Water Temp Dewpoint Dewpoint Depression Visibility Wind Speed Wind Dir Waves Ship Positions

Cp 276

Last reported at 2016-Jul-24 10:27 UTC. Time now 2016-Jul-25 14:02 UTC.
Position N 38°02' E 015°29'.

Length 25 m; draft 1.9 m.

Type: SAR. MMSI: 247020900.

Date/timePositionNaut miles runAvg speedWind from/ knotsBaromVisibWave heightAir tempDewpointWater temp
2016-Jul-24 10:27N 38°02' E 015°29'1314.6
2016-Jul-24 09:34N 38°14' E 015°36'9 9.1
2016-Jul-24 08:33N 38°21' E 015°29'1514.6
2016-Jul-24 07:33N 38°24' E 015°11'11 0.9
2016-Jul-23 18:12N 38°28' E 014°57'0 0.0
2016-Jul-23 17:21N 38°28' E 014°57'0 0.0
2016-Jul-23 02:11N 38°28' E 014°57'0 0.0
2016-Jul-23 01:30N 38°28' E 014°57'0 0.0
2016-Jul-22 22:25N 38°28' E 014°57'0 0.0
2016-Jul-22 20:24N 38°28' E 014°57'0 0.0
2016-Jul-22 18:20N 38°28' E 014°57'0 0.0
2016-Jul-22 17:33N 38°28' E 014°57'3 0.7
2016-Jul-22 13:11N 38°31' E 014°56'0 0.0
2016-Jul-22 12:33N 38°31' E 014°56'0 0.0
2016-Jul-22 11:33N 38°31' E 014°56'0 0.2
2016-Jul-22 10:33N 38°31' E 014°56'2 1.5
2016-Jul-22 09:14N 38°31' E 014°59'3 3.8
2016-Jul-22 08:33N 38°28' E 014°57'  

Dump ship's entire track history